createdAt,value
2023-01-04T00:01:52.593Z,4.20
2023-01-04T00:06:45.950Z,4.40
2023-01-04T00:09:12.672Z,4.70
2023-01-04T00:11:39.381Z,4.60
2023-01-04T00:14:06.084Z,5.70
2023-01-04T00:16:32.987Z,4.70
2023-01-04T00:18:59.779Z,5.20
2023-01-04T00:21:28.475Z,4.90
2023-01-04T00:23:57.023Z,5.70
2023-01-04T00:26:28.716Z,4.00
2023-01-04T00:29:03.349Z,4.00
2023-01-04T00:31:30.652Z,4.30
2023-01-04T00:36:24.639Z,4.00
2023-01-04T00:41:58.808Z,4.00
2023-01-04T00:44:26.373Z,4.10
2023-01-04T00:46:53.384Z,4.40
2023-01-04T00:49:20.283Z,4.10
2023-01-04T00:51:47.007Z,4.10
2023-01-04T00:54:14.389Z,3.90
2023-01-04T00:56:41.118Z,4.20
2023-01-04T00:59:07.959Z,3.80
2023-01-04T01:04:03.449Z,3.80
2023-01-04T01:06:30.877Z,4.00
2023-01-04T01:08:57.621Z,4.00
2023-01-04T01:11:24.341Z,4.70
2023-01-04T01:13:51.256Z,3.40
2023-01-04T01:19:04.885Z,3.50
2023-01-04T01:21:32.846Z,3.40
2023-01-04T01:23:59.560Z,3.20
2023-01-04T01:26:26.363Z,3.00
2023-01-04T01:28:53.101Z,2.60
2023-01-04T01:31:22.322Z,2.50
2023-01-04T01:33:49.926Z,3.00
2023-01-04T01:36:17.652Z,2.70
2023-01-04T01:38:44.615Z,3.40
2023-01-04T01:41:37.849Z,3.20
2023-01-04T01:44:06.868Z,3.00
2023-01-04T01:46:48.625Z,3.20
2023-01-04T01:49:25.090Z,2.80
2023-01-04T01:51:52.891Z,2.40
2023-01-04T01:54:21.771Z,2.90
2023-01-04T01:56:48.857Z,2.30
2023-01-04T01:59:15.603Z,2.70
2023-01-04T02:01:42.395Z,3.00
2023-01-04T02:04:09.300Z,2.70
2023-01-04T02:09:04.184Z,2.90
2023-01-04T02:14:16.328Z,2.20
2023-01-04T02:17:06.453Z,2.40
2023-01-04T02:20:04.605Z,2.60
2023-01-04T02:22:50.065Z,2.70
2023-01-04T02:25:47.264Z,2.10
2023-01-04T02:29:10.803Z,2.50
2023-01-04T02:31:41.091Z,2.70
2023-01-04T02:34:16.608Z,2.20
2023-01-04T02:36:46.013Z,2.20
2023-01-04T02:39:28.053Z,2.20
2023-01-04T02:41:59.377Z,2.80
2023-01-04T02:44:50.721Z,2.80
2023-01-04T02:48:01.801Z,3.40
2023-01-04T02:50:31.481Z,2.30
2023-01-04T02:53:15.466Z,2.30
2023-01-04T02:55:49.469Z,2.40
2023-01-04T02:58:43.303Z,2.20
2023-01-04T03:01:52.199Z,2.50
2023-01-04T03:05:04.288Z,3.00
2023-01-04T03:07:49.849Z,2.90
2023-01-04T03:10:25.827Z,2.60
2023-01-04T03:12:56.487Z,2.70
2023-01-04T03:15:25.149Z,3.20
2023-01-04T03:18:14.674Z,2.80
2023-01-04T03:20:41.405Z,3.60
2023-01-04T03:23:27.190Z,6.40
2023-01-04T03:26:18.453Z,5.10
2023-01-04T03:29:04.051Z,4.90
2023-01-04T03:32:04.029Z,3.90
2023-01-04T03:34:49.431Z,4.20
2023-01-04T03:37:39.883Z,5.80
2023-01-04T03:40:44.060Z,4.10
2023-01-04T03:43:40.632Z,6.60
2023-01-04T03:46:53.859Z,5.20
2023-01-04T03:49:33.111Z,5.00
2023-01-04T03:52:00.730Z,5.80
2023-01-04T03:54:30.016Z,7.70
2023-01-04T03:56:56.746Z,7.30
2023-01-04T03:59:23.845Z,5.80
2023-01-04T04:01:50.637Z,6.60
2023-01-04T04:07:21.589Z,6.00
2023-01-04T04:09:48.329Z,5.80
2023-01-04T04:12:15.101Z,5.40
2023-01-04T04:14:41.832Z,7.30
2023-01-04T04:17:08.521Z,6.90
2023-01-04T04:19:35.261Z,6.10
2023-01-04T04:22:02.016Z,6.50
2023-01-04T04:24:28.760Z,8.00
2023-01-04T04:29:23.394Z,6.90
2023-01-04T04:31:50.363Z,5.60
2023-01-04T04:34:17.321Z,5.20
2023-01-04T04:39:11.615Z,5.00
2023-01-04T04:41:39.378Z,4.50
2023-01-04T04:44:10.589Z,6.50
2023-01-04T04:46:37.434Z,6.90
2023-01-04T04:51:30.806Z,4.30
2023-01-04T04:53:57.506Z,7.50
2023-01-04T04:56:24.241Z,9.70
2023-01-04T04:58:50.965Z,8.10
2023-01-04T05:01:18.221Z,7.80
2023-01-04T05:03:45.231Z,8.80
2023-01-04T05:08:38.694Z,9.40
2023-01-04T05:11:09.786Z,11.50
2023-01-04T05:13:36.939Z,8.90
2023-01-04T05:16:04.265Z,14.20
2023-01-04T05:18:31.092Z,8.30
2023-01-04T05:23:30.544Z,8.90
2023-01-04T05:25:58.914Z,9.90
2023-01-04T05:28:25.800Z,9.10
2023-01-04T05:35:48.386Z,8.00
2023-01-04T05:38:15.169Z,11.80
2023-01-04T05:40:41.885Z,11.20
2023-01-04T05:43:08.635Z,14.90
2023-01-04T05:45:35.595Z,17.50
2023-01-04T05:48:02.387Z,17.50
2023-01-04T05:50:29.095Z,24.20
2023-01-04T05:53:03.810Z,18.60
2023-01-04T05:55:30.596Z,19.40
2023-01-04T05:57:57.303Z,15.80
2023-01-04T06:00:24.069Z,13.60
2023-01-04T06:02:52.656Z,11.90
2023-01-04T06:05:19.542Z,6.50
2023-01-04T06:07:46.264Z,4.40
2023-01-04T06:12:40.064Z,4.50
2023-01-04T06:17:34.140Z,4.50
2023-01-04T06:22:28.181Z,9.70
2023-01-04T06:24:54.863Z,10.90
2023-01-04T06:27:21.558Z,11.90
2023-01-04T06:29:48.296Z,13.70
2023-01-04T06:32:15.086Z,14.50
2023-01-04T06:37:09.826Z,18.10
2023-01-04T06:39:37.364Z,16.00
2023-01-04T06:42:06.972Z,13.60
2023-01-04T06:44:34.246Z,17.70
2023-01-04T06:49:27.622Z,11.20
2023-01-04T06:51:54.410Z,7.70
2023-01-04T06:54:21.138Z,6.80
2023-01-04T06:56:47.861Z,6.60
2023-01-04T06:59:14.616Z,6.40
2023-01-04T07:01:41.466Z,8.00
2023-01-04T07:04:08.317Z,6.10
2023-01-04T07:06:35.017Z,7.30
2023-01-04T07:09:01.751Z,6.90
2023-01-04T07:11:28.494Z,6.70
2023-01-04T07:13:55.278Z,5.70
2023-01-04T07:16:22.101Z,5.90
2023-01-04T07:21:15.520Z,6.80
2023-01-04T07:23:42.223Z,6.40
2023-01-04T07:26:09.016Z,7.80
2023-01-04T07:31:21.375Z,6.20
2023-01-04T07:33:51.295Z,5.90
2023-01-04T07:36:18.025Z,7.00
2023-01-04T07:38:44.690Z,8.50
2023-01-04T07:41:11.489Z,6.70
2023-01-04T07:46:04.958Z,5.90
2023-01-04T07:50:58.445Z,4.50
2023-01-04T07:53:25.153Z,4.30
2023-01-04T07:55:58.415Z,4.10
2023-01-04T07:58:25.844Z,5.00
2023-01-04T08:00:52.607Z,5.00
2023-01-04T08:03:19.335Z,5.00
2023-01-04T08:05:46.759Z,5.50
2023-01-04T08:08:13.565Z,5.30
2023-01-04T08:10:40.283Z,5.40
2023-01-04T08:13:06.943Z,5.80
2023-01-04T08:15:33.794Z,6.00
2023-01-04T08:18:01.313Z,5.60
2023-01-04T08:20:27.995Z,4.80
2023-01-04T08:22:54.745Z,4.00
2023-01-04T08:25:21.583Z,3.80
2023-01-04T08:27:48.726Z,3.20
2023-01-04T08:30:15.521Z,3.20
2023-01-04T08:32:42.251Z,4.00
2023-01-04T08:35:09.072Z,3.70
2023-01-04T08:40:02.839Z,3.50
2023-01-04T08:42:31.770Z,3.50
2023-01-04T08:45:01.214Z,4.40
2023-01-04T08:47:29.456Z,4.00
2023-01-04T08:49:56.954Z,3.90
2023-01-04T08:52:23.718Z,4.00
2023-01-04T08:54:50.431Z,3.90
2023-01-04T08:57:17.666Z,4.00
2023-01-04T08:59:44.588Z,3.50
2023-01-04T09:04:49.146Z,3.80
2023-01-04T09:07:16.159Z,4.40
2023-01-04T09:09:42.948Z,4.30
2023-01-04T09:14:36.533Z,4.00
2023-01-04T09:17:03.316Z,4.20
2023-01-04T09:21:56.651Z,3.80
2023-01-04T09:24:23.425Z,3.90
2023-01-04T09:26:50.143Z,3.90
2023-01-04T09:29:16.947Z,5.00
2023-01-04T09:34:14.609Z,4.30
2023-01-04T09:36:42.482Z,4.50
2023-01-04T09:39:15.006Z,4.60
2023-01-04T09:41:59.243Z,4.70
2023-01-04T09:50:32.461Z,4.20
2023-01-04T09:53:38.194Z,3.60
2023-01-04T09:56:34.106Z,3.40
2023-01-04T09:59:01.995Z,4.00
2023-01-04T10:01:41.911Z,4.30
2023-01-04T10:04:19.253Z,3.50
2023-01-04T10:06:46.072Z,4.40
2023-01-04T10:12:10.821Z,4.50
2023-01-04T10:14:53.244Z,4.10
2023-01-04T10:17:57.435Z,4.20
2023-01-04T10:23:08.052Z,4.60
2023-01-04T10:25:47.357Z,4.10
2023-01-04T10:28:55.646Z,8.00
2023-01-04T10:31:39.546Z,5.60
2023-01-04T10:34:35.908Z,5.40
2023-01-04T10:37:21.046Z,5.60
2023-01-04T10:39:53.159Z,6.30
2023-01-04T10:42:35.015Z,5.00
2023-01-04T10:45:09.504Z,5.50
2023-01-04T10:47:48.107Z,4.80
2023-01-04T10:50:20.945Z,7.10
2023-01-04T10:53:08.875Z,5.80
2023-01-04T10:56:24.094Z,3.90
2023-01-04T10:58:52.176Z,5.40
2023-01-04T11:01:37.324Z,5.10
2023-01-04T11:04:10.519Z,5.40
2023-01-04T11:06:52.513Z,5.50
2023-01-04T11:09:25.446Z,4.50
2023-01-04T11:11:53.618Z,3.50
2023-01-04T11:14:20.439Z,3.60
2023-01-04T11:21:50.887Z,4.50
2023-01-04T11:24:33.712Z,4.90
2023-01-04T11:27:11.164Z,4.20
2023-01-04T11:30:05.000Z,4.40
2023-01-04T11:32:35.948Z,4.80
2023-01-04T11:35:02.757Z,6.30
2023-01-04T11:40:23.532Z,7.50
2023-01-04T11:42:52.491Z,4.80
2023-01-04T11:45:21.941Z,4.00
2023-01-04T11:47:58.214Z,4.00
2023-01-04T11:50:37.564Z,2.70
2023-01-04T11:53:22.638Z,2.60
2023-01-04T11:55:49.423Z,3.00
2023-01-04T11:58:17.185Z,2.80
2023-01-04T12:00:50.427Z,5.20
2023-01-04T12:03:40.456Z,8.30
2023-01-04T12:06:36.876Z,5.50
2023-01-04T12:09:03.763Z,4.10
2023-01-04T12:14:01.129Z,3.10
2023-01-04T12:16:58.788Z,3.50
2023-01-04T12:19:25.731Z,5.20
2023-01-04T12:21:54.431Z,3.50
2023-01-04T12:24:26.224Z,3.50
2023-01-04T12:26:53.202Z,3.30
2023-01-04T12:31:53.729Z,3.70
2023-01-04T12:34:24.105Z,3.10
2023-01-04T12:36:50.893Z,3.60
2023-01-04T12:39:22.587Z,3.00
2023-01-04T12:42:01.421Z,3.00
2023-01-04T12:44:38.725Z,3.50
2023-01-04T12:47:36.319Z,4.30
2023-01-04T12:50:13.988Z,4.20
2023-01-04T12:55:43.813Z,3.20
2023-01-04T12:59:06.579Z,5.90
2023-01-04T13:01:26.843Z,4.50
2023-01-04T13:04:05.608Z,4.10
2023-01-04T13:06:35.762Z,3.70
2023-01-04T13:09:02.600Z,3.00
2023-01-04T13:14:09.803Z,3.50
2023-01-04T13:16:43.060Z,2.80
2023-01-04T13:19:20.797Z,4.40
2023-01-04T13:21:47.589Z,4.00
2023-01-04T13:26:46.120Z,4.70
2023-01-04T13:29:15.736Z,4.30
2023-01-04T13:31:48.960Z,3.50
2023-01-04T13:34:33.033Z,3.60
2023-01-04T13:37:19.208Z,4.20
2023-01-04T13:39:47.832Z,4.10
2023-01-04T13:42:23.823Z,4.10
2023-01-04T13:45:19.519Z,3.90
2023-01-04T13:47:47.710Z,5.70
2023-01-04T13:50:40.493Z,8.10
2023-01-04T13:53:18.467Z,17.80
2023-01-04T13:55:46.726Z,19.30
2023-01-04T13:58:18.288Z,9.70
2023-01-04T14:01:12.893Z,10.70
2023-01-04T14:03:44.497Z,7.10
2023-01-04T14:06:11.325Z,6.90
2023-01-04T14:08:47.113Z,6.30
2023-01-04T14:11:45.102Z,8.00
2023-01-04T14:14:33.643Z,7.70
2023-01-04T14:17:17.899Z,10.60
2023-01-04T14:19:45.751Z,11.10
2023-01-04T14:22:45.012Z,10.90
2023-01-04T14:25:48.422Z,10.70
2023-01-04T14:28:18.879Z,10.00
2023-01-04T14:30:46.668Z,9.80
2023-01-04T14:33:13.396Z,9.40
2023-01-04T14:38:16.468Z,7.60
2023-01-04T14:40:43.251Z,8.60
2023-01-04T14:43:31.401Z,9.60
2023-01-04T14:45:58.162Z,7.20
2023-01-04T14:48:24.852Z,6.50
2023-01-04T14:50:51.522Z,9.30
2023-01-04T14:53:19.208Z,17.80
2023-01-04T14:55:45.971Z,28.20
2023-01-04T14:58:12.690Z,24.70
2023-01-04T15:00:39.532Z,33.10
2023-01-04T15:03:07.302Z,36.20
2023-01-04T15:08:05.077Z,26.50
2023-01-04T15:10:32.078Z,22.40
2023-01-04T15:13:00.693Z,21.10
2023-01-04T15:15:27.637Z,17.70
2023-01-04T15:20:20.949Z,13.20
2023-01-04T15:22:47.766Z,9.70
2023-01-04T15:25:14.513Z,9.70
2023-01-04T15:27:42.861Z,10.80
2023-01-04T15:30:13.223Z,11.30
2023-01-04T15:32:39.945Z,13.00
2023-01-04T15:35:06.978Z,11.90
2023-01-04T15:37:33.779Z,13.10
2023-01-04T15:40:03.294Z,16.10
2023-01-04T15:42:49.009Z,19.30
2023-01-04T15:45:15.853Z,17.90
2023-01-04T15:47:42.575Z,18.00
2023-01-04T15:50:09.622Z,19.90
2023-01-04T15:52:36.363Z,19.40
2023-01-04T15:55:03.356Z,19.50
2023-01-04T15:57:30.228Z,21.60
2023-01-04T16:02:23.869Z,22.20
2023-01-04T16:04:50.716Z,23.60
2023-01-04T16:07:17.678Z,24.80
2023-01-04T16:09:44.473Z,28.60
2023-01-04T16:14:56.629Z,30.80
2023-01-04T16:17:23.367Z,34.30
2023-01-04T16:19:50.086Z,34.80
2023-01-04T16:22:16.791Z,33.30
2023-01-04T16:27:35.422Z,34.70
2023-01-04T16:30:03.685Z,33.70
2023-01-04T16:32:30.505Z,39.30
2023-01-04T16:34:57.296Z,43.00
2023-01-04T16:37:28.138Z,40.10
2023-01-04T16:40:10.269Z,43.60
2023-01-04T16:42:37.583Z,43.10
2023-01-04T16:45:04.841Z,42.10
2023-01-04T16:47:40.080Z,41.20
2023-01-04T16:50:07.264Z,43.70
2023-01-04T16:52:34.000Z,45.60
2023-01-04T16:55:00.701Z,44.20
2023-01-04T16:57:27.408Z,49.80
2023-01-04T16:59:54.220Z,49.00
2023-01-04T17:04:54.423Z,46.90
2023-01-04T17:07:21.592Z,46.30
2023-01-04T17:09:51.390Z,47.20
2023-01-04T17:15:41.304Z,46.70
2023-01-04T17:17:52.091Z,43.80
2023-01-04T17:20:19.058Z,43.60
2023-01-04T17:25:12.405Z,42.40
2023-01-04T17:30:06.638Z,43.20
2023-01-04T17:32:33.382Z,43.30
2023-01-04T17:35:00.154Z,43.50
2023-01-04T17:37:27.092Z,42.50
2023-01-04T17:40:40.213Z,42.20
2023-01-04T17:43:07.082Z,40.30
2023-01-04T17:48:00.549Z,37.30
2023-01-04T17:50:27.287Z,38.50
2023-01-04T17:52:54.020Z,42.40
2023-01-04T17:55:20.733Z,45.30
2023-01-04T17:57:47.560Z,45.70
2023-01-04T18:02:42.970Z,34.60
2023-01-04T18:05:10.045Z,48.00
2023-01-04T18:07:36.739Z,53.80
2023-01-04T18:10:03.814Z,51.20
2023-01-04T18:12:30.689Z,49.30
2023-01-04T18:17:24.191Z,40.90
2023-01-04T18:19:50.990Z,39.80
2023-01-04T18:24:44.384Z,31.80
2023-01-04T18:27:27.467Z,37.00
2023-01-04T18:29:55.253Z,32.20
2023-01-04T18:32:22.844Z,34.60
2023-01-04T18:34:49.593Z,37.10
2023-01-04T18:37:18.307Z,43.60
2023-01-04T18:39:45.405Z,41.70
2023-01-04T18:42:12.265Z,40.20
2023-01-04T18:47:14.612Z,35.20
2023-01-04T18:49:41.358Z,34.50
2023-01-04T18:52:08.130Z,34.60
2023-01-04T18:54:34.962Z,32.30
2023-01-04T18:59:29.430Z,27.70
2023-01-04T19:02:01.478Z,26.20
2023-01-04T19:04:30.022Z,25.30
2023-01-04T19:06:57.313Z,27.60
2023-01-04T19:11:50.924Z,20.20
2023-01-04T19:16:44.557Z,18.20
2023-01-04T19:21:38.220Z,16.10
2023-01-04T19:24:05.153Z,13.80
2023-01-04T19:26:31.867Z,13.60
2023-01-04T19:28:58.632Z,13.30
2023-01-04T19:31:25.311Z,12.90
2023-01-04T19:33:52.064Z,11.90
2023-01-04T19:36:19.225Z,11.30
2023-01-04T19:38:46.210Z,11.10
2023-01-04T19:41:16.315Z,12.40
2023-01-04T19:43:43.113Z,13.90
2023-01-04T19:48:37.148Z,15.00
2023-01-04T19:51:07.458Z,17.10
2023-01-04T19:53:34.380Z,17.20
2023-01-04T19:56:01.097Z,18.60
2023-01-04T19:58:27.875Z,21.90
2023-01-04T20:00:55.352Z,19.70
2023-01-04T20:03:22.729Z,19.70
2023-01-04T20:05:50.017Z,16.20
2023-01-04T20:08:16.752Z,13.60
2023-01-04T20:10:43.559Z,13.30
2023-01-04T20:15:40.202Z,9.80
2023-01-04T20:18:13.341Z,9.80
2023-01-04T20:20:44.191Z,12.40
2023-01-04T20:23:11.150Z,12.10
2023-01-04T20:25:41.878Z,11.60
2023-01-04T20:28:08.585Z,10.00
2023-01-04T20:30:35.400Z,8.30
2023-01-04T20:35:28.923Z,12.20
2023-01-04T20:37:58.554Z,15.80
2023-01-04T20:40:25.708Z,19.20
2023-01-04T20:43:11.327Z,24.70
2023-01-04T20:45:45.331Z,19.20
2023-01-04T20:48:12.256Z,17.30
2023-01-04T20:50:39.098Z,15.00
2023-01-04T20:53:05.878Z,14.00
2023-01-04T20:55:32.764Z,13.80
2023-01-04T20:57:59.605Z,11.90
2023-01-04T21:00:26.298Z,10.70
2023-01-04T21:02:53.119Z,8.30
2023-01-04T21:07:46.670Z,8.20
2023-01-04T21:10:13.408Z,8.40
2023-01-04T21:12:40.110Z,10.50
2023-01-04T21:15:07.075Z,9.90
2023-01-04T21:17:33.827Z,11.10
2023-01-04T21:20:00.542Z,10.30
2023-01-04T21:22:27.288Z,9.10
2023-01-04T21:27:20.585Z,9.40
2023-01-04T21:29:47.294Z,10.80
2023-01-04T21:32:14.047Z,11.20
2023-01-04T21:34:40.738Z,12.30
2023-01-04T21:37:07.471Z,10.40
2023-01-04T21:39:34.340Z,9.90
2023-01-04T21:44:27.895Z,9.10
2023-01-04T21:46:54.689Z,10.10
2023-01-04T21:51:48.185Z,9.30
2023-01-04T21:54:14.912Z,8.70
2023-01-04T21:56:41.703Z,9.50
2023-01-04T21:59:08.440Z,8.80
2023-01-04T22:01:35.864Z,10.30
2023-01-04T22:04:03.331Z,9.40
2023-01-04T22:06:30.074Z,9.20
2023-01-04T22:08:58.639Z,11.50
2023-01-04T22:11:25.337Z,11.70
2023-01-04T22:13:52.109Z,10.00
2023-01-04T22:16:19.008Z,10.00
2023-01-04T22:23:41.031Z,10.60
2023-01-04T22:28:36.946Z,8.30
2023-01-04T22:31:08.435Z,7.80
2023-01-04T22:33:35.680Z,8.80
2023-01-04T22:36:06.668Z,9.60
2023-01-04T22:38:35.216Z,9.50
2023-01-04T22:41:08.111Z,9.30
2023-01-04T22:43:35.471Z,8.90
2023-01-04T22:46:02.734Z,7.80
2023-01-04T22:48:29.563Z,7.10
2023-01-04T22:53:23.092Z,7.00
2023-01-04T22:58:36.475Z,6.80
2023-01-04T23:01:04.076Z,7.80
2023-01-04T23:03:34.676Z,8.30
2023-01-04T23:06:05.206Z,7.00
2023-01-04T23:08:32.846Z,7.30
2023-01-04T23:11:06.480Z,7.80
2023-01-04T23:13:33.305Z,6.50
2023-01-04T23:18:29.582Z,6.00
2023-01-04T23:20:56.322Z,5.80
2023-01-04T23:23:23.037Z,7.60
2023-01-04T23:25:49.771Z,6.80
2023-01-04T23:28:16.504Z,6.20
2023-01-04T23:30:43.999Z,6.30
2023-01-04T23:33:11.211Z,6.00
2023-01-04T23:35:37.988Z,6.40
2023-01-04T23:38:04.732Z,6.60
2023-01-04T23:40:31.429Z,7.30
2023-01-04T23:42:59.491Z,6.50
2023-01-04T23:45:27.052Z,7.20
2023-01-04T23:47:53.805Z,7.40
2023-01-04T23:50:22.182Z,7.00
2023-01-04T23:52:48.958Z,6.40
2023-01-04T23:55:15.689Z,7.30
2023-01-04T23:57:42.399Z,6.00
